createdAt,value
2018-03-22T00:00:33.223Z,1014.86
2018-03-22T00:01:32.929Z,1014.88
2018-03-22T00:02:32.832Z,1014.88
2018-03-22T00:03:32.786Z,1014.84
2018-03-22T00:04:32.740Z,1014.85
2018-03-22T00:05:32.696Z,1014.76
2018-03-22T00:06:32.649Z,1014.71
2018-03-22T00:07:32.902Z,1014.71
2018-03-22T00:08:32.557Z,1014.71
2018-03-22T00:09:32.511Z,1014.64
2018-03-22T00:10:32.465Z,1014.60
2018-03-22T00:11:32.419Z,1014.63
2018-03-22T00:12:32.478Z,1014.57
2018-03-22T00:13:32.329Z,1014.60
2018-03-22T00:14:32.591Z,1014.56
2018-03-22T00:15:32.240Z,1014.52
2018-03-22T00:16:32.190Z,1014.51
2018-03-22T00:17:32.148Z,1014.40
2018-03-22T00:18:32.108Z,1014.41
2018-03-22T00:19:32.054Z,1014.35
2018-03-22T00:20:32.058Z,1014.37
2018-03-22T00:21:32.266Z,1014.29
2018-03-22T00:22:31.979Z,1014.35
2018-03-22T00:23:31.873Z,1014.31
2018-03-22T00:24:31.825Z,1014.32
2018-03-22T00:25:31.780Z,1014.25
2018-03-22T00:26:31.738Z,1014.27
2018-03-22T00:27:31.993Z,1014.30
2018-03-22T00:28:31.692Z,1014.24
2018-03-22T00:29:31.602Z,1014.27
2018-03-22T00:30:31.553Z,1014.24
2018-03-22T00:31:31.505Z,1014.24
2018-03-22T00:32:31.459Z,1014.20
2018-03-22T00:33:31.719Z,1014.22
2018-03-22T00:34:31.416Z,1014.19
2018-03-22T00:35:31.320Z,1014.19
2018-03-22T00:36:31.284Z,1014.18
2018-03-22T00:37:31.248Z,1014.18
2018-03-22T00:38:31.190Z,1014.22
2018-03-22T00:41:31.048Z,1014.22
2018-03-22T00:42:31.001Z,1014.29
2018-03-22T00:43:30.947Z,1014.27
2018-03-22T00:44:30.905Z,1014.35
2018-03-22T00:45:31.160Z,1014.40
2018-03-22T00:46:30.813Z,1014.41
2018-03-22T00:47:30.766Z,1014.44
2018-03-22T00:48:30.720Z,1014.52
2018-03-22T00:49:30.679Z,1014.52
2018-03-22T00:50:30.630Z,1014.51
2018-03-22T00:51:30.882Z,1014.50
2018-03-22T00:52:30.540Z,1014.52
2018-03-22T00:53:30.499Z,1014.55
2018-03-22T00:54:30.445Z,1014.51
2018-03-22T00:55:30.399Z,1014.39
2018-03-22T00:56:30.355Z,1014.40
2018-03-22T00:57:30.308Z,1014.34
2018-03-22T00:58:30.573Z,1014.35
2018-03-22T00:59:30.417Z,1014.34
2018-03-22T01:00:30.172Z,1014.35
2018-03-22T01:01:30.124Z,1014.34
2018-03-22T01:02:30.082Z,1014.27
2018-03-22T01:03:30.033Z,1014.14
2018-03-22T01:04:29.993Z,1014.21
2018-03-22T01:05:30.240Z,1014.18
2018-03-22T01:06:29.893Z,1014.17
2018-03-22T01:07:29.848Z,1014.06
2018-03-22T01:08:29.802Z,1014.04
2018-03-22T01:09:29.758Z,1013.95
2018-03-22T01:10:29.710Z,1013.94
2018-03-22T01:11:29.665Z,1013.88
2018-03-22T01:12:29.917Z,1013.87
2018-03-22T01:13:29.572Z,1013.81
2018-03-22T01:14:29.525Z,1013.72
2018-03-22T01:15:29.679Z,1013.69
2018-03-22T01:16:29.432Z,1013.65
2018-03-22T01:17:29.392Z,1013.59
2018-03-22T01:18:29.341Z,1013.60
2018-03-22T01:19:29.593Z,1013.61
2018-03-22T01:20:29.248Z,1013.53
2018-03-22T01:21:29.252Z,1013.58
2018-03-22T01:22:29.155Z,1013.54
2018-03-22T01:23:29.107Z,1013.47
2018-03-22T01:24:29.066Z,1013.43
2018-03-22T01:25:29.015Z,1013.38
2018-03-22T01:26:29.269Z,1013.34
2018-03-22T01:27:28.924Z,1013.35
2018-03-22T01:28:28.876Z,1013.26
2018-03-22T01:29:28.829Z,1013.28
2018-03-22T01:30:28.783Z,1013.26
2018-03-22T01:31:28.737Z,1013.20
2018-03-22T01:32:28.739Z,1013.16
2018-03-22T01:33:28.944Z,1013.08
2018-03-22T01:34:28.602Z,1013.11
2018-03-22T01:35:28.556Z,1013.05
2018-03-22T01:36:28.506Z,1013.08
2018-03-22T01:37:28.459Z,1013.02
2018-03-22T01:38:28.619Z,1013.06
2018-03-22T01:39:28.668Z,1012.97
2018-03-22T01:40:28.317Z,1012.96
2018-03-22T01:41:28.284Z,1012.92
2018-03-22T01:42:28.226Z,1012.93
2018-03-22T01:43:28.179Z,1012.85
2018-03-22T01:44:28.333Z,1012.93
2018-03-22T01:45:28.388Z,1012.90
2018-03-22T01:46:28.043Z,1012.88
2018-03-22T01:47:27.994Z,1012.93
2018-03-22T01:48:27.953Z,1012.85
2018-03-22T01:49:27.904Z,1012.81
2018-03-22T01:50:27.858Z,1012.85
2018-03-22T01:51:28.110Z,1012.85
2018-03-22T01:52:27.762Z,1012.76
2018-03-22T01:53:27.717Z,1012.77
2018-03-22T01:54:27.674Z,1012.74
2018-03-22T01:55:27.627Z,1012.73
2018-03-22T01:56:27.579Z,1012.71
2018-03-22T01:57:27.832Z,1012.63
2018-03-22T01:58:27.487Z,1012.72
2018-03-22T01:59:27.440Z,1012.69
2018-03-22T02:00:27.392Z,1012.69
2018-03-22T02:01:27.350Z,1012.73
2018-03-22T02:02:27.301Z,1012.66
2018-03-22T02:03:27.558Z,1012.64
2018-03-22T02:04:27.219Z,1012.61
2018-03-22T02:05:27.162Z,1012.60
2018-03-22T02:06:27.114Z,1012.54
2018-03-22T02:07:27.069Z,1012.56
2018-03-22T02:08:27.022Z,1012.58
2018-03-22T02:09:26.977Z,1012.49
2018-03-22T02:10:27.380Z,1012.49
2018-03-22T02:11:26.893Z,1012.47
2018-03-22T02:12:26.837Z,1012.49
2018-03-22T02:13:26.793Z,1012.42
2018-03-22T02:14:26.747Z,1012.36
2018-03-22T02:15:26.705Z,1012.42
2018-03-22T02:16:26.752Z,1012.34
2018-03-22T02:17:26.907Z,1012.28
2018-03-22T02:18:26.561Z,1012.28
2018-03-22T02:19:26.513Z,1012.20
2018-03-22T02:20:26.468Z,1012.15
2018-03-22T02:21:26.422Z,1012.20
2018-03-22T02:22:26.376Z,1012.11
2018-03-22T02:23:26.331Z,1012.13
2018-03-22T02:24:26.583Z,1012.13
2018-03-22T02:25:26.243Z,1012.10
2018-03-22T02:26:26.193Z,1012.08
2018-03-22T02:27:26.144Z,1011.99
2018-03-22T02:28:26.100Z,1012.00
2018-03-22T02:29:26.061Z,1012.01
2018-03-22T02:30:26.012Z,1011.96
2018-03-22T02:31:26.262Z,1011.87
2018-03-22T02:32:25.917Z,1011.90
2018-03-22T02:33:25.869Z,1011.89
2018-03-22T02:34:25.821Z,1011.86
2018-03-22T02:35:25.780Z,1011.73
2018-03-22T02:36:25.730Z,1011.72
2018-03-22T02:37:25.687Z,1011.74
2018-03-22T02:38:25.938Z,1011.64
2018-03-22T02:39:25.593Z,1011.56
2018-03-22T02:40:25.551Z,1011.64
2018-03-22T02:41:25.501Z,1011.67
2018-03-22T02:42:25.462Z,1011.55
2018-03-22T02:43:25.409Z,1011.57
2018-03-22T02:44:25.361Z,1011.48
2018-03-22T02:45:25.618Z,1011.47
2018-03-22T02:46:25.268Z,1011.44
2018-03-22T02:47:25.224Z,1011.38
2018-03-22T02:48:25.184Z,1011.36
2018-03-22T02:49:25.184Z,1011.32
2018-03-22T02:50:25.107Z,1011.32
2018-03-22T02:51:25.343Z,1011.38
2018-03-22T02:52:24.998Z,1011.35
2018-03-22T02:53:24.953Z,1011.32
2018-03-22T02:54:24.911Z,1011.27
2018-03-22T02:55:24.856Z,1011.26
2018-03-22T02:56:24.810Z,1011.26
2018-03-22T02:57:25.062Z,1011.17
2018-03-22T02:58:24.719Z,1011.16
2018-03-22T02:59:24.675Z,1011.12
2018-03-22T03:00:24.633Z,1011.09
2018-03-22T03:01:24.581Z,1011.17
2018-03-22T03:02:24.543Z,1011.03
2018-03-22T03:03:24.788Z,1010.99
2018-03-22T03:04:24.446Z,1011.11
2018-03-22T03:05:24.397Z,1011.06
2018-03-22T03:06:24.356Z,1010.82
2018-03-22T03:07:24.305Z,1010.95
2018-03-22T03:08:24.313Z,1010.90
2018-03-22T03:09:24.517Z,1010.91
2018-03-22T03:10:24.164Z,1010.96
2018-03-22T03:11:24.120Z,1010.95
2018-03-22T03:12:24.079Z,1010.88
2018-03-22T03:13:24.028Z,1010.94
2018-03-22T03:14:24.320Z,1010.85
2018-03-22T03:15:24.234Z,1010.81
2018-03-22T03:16:23.887Z,1010.82
2018-03-22T03:17:23.842Z,1010.79
2018-03-22T03:18:23.795Z,1010.79
2018-03-22T03:19:23.748Z,1010.71
2018-03-22T03:20:23.709Z,1010.80
2018-03-22T03:21:23.662Z,1010.71
2018-03-22T03:22:23.910Z,1010.71
2018-03-22T03:23:23.639Z,1010.69
2018-03-22T03:24:23.520Z,1010.65
2018-03-22T03:25:23.523Z,1010.68
2018-03-22T03:26:23.425Z,1010.65
2018-03-22T03:27:23.384Z,1010.60
2018-03-22T03:28:23.332Z,1010.71
2018-03-22T03:29:23.586Z,1010.67
2018-03-22T03:30:23.273Z,1010.59
2018-03-22T03:31:23.356Z,1010.61
2018-03-22T03:32:23.152Z,1010.58
2018-03-22T03:33:23.107Z,1010.57
2018-03-22T03:34:23.064Z,1010.56
2018-03-22T03:35:23.007Z,1010.52
2018-03-22T03:36:23.262Z,1010.51
2018-03-22T03:37:23.066Z,1010.53
2018-03-22T03:38:22.869Z,1010.52
2018-03-22T03:39:22.822Z,1010.47
2018-03-22T03:40:22.777Z,1010.48
2018-03-22T03:41:22.785Z,1010.38
2018-03-22T03:42:22.685Z,1010.41
2018-03-22T03:43:22.940Z,1010.46
2018-03-22T03:44:22.592Z,1010.45
2018-03-22T03:45:22.545Z,1010.40
2018-03-22T03:46:22.500Z,1010.36
2018-03-22T03:47:22.452Z,1010.41
2018-03-22T03:48:22.414Z,1010.36
2018-03-22T03:49:22.361Z,1010.28
2018-03-22T03:50:22.614Z,1010.33
2018-03-22T03:51:22.270Z,1010.30
2018-03-22T03:52:22.222Z,1010.27
2018-03-22T03:53:22.183Z,1010.27
2018-03-22T03:54:22.130Z,1010.22
2018-03-22T03:55:22.090Z,1010.23
2018-03-22T03:56:22.338Z,1010.22
2018-03-22T03:57:21.988Z,1010.15
2018-03-22T03:58:21.944Z,1010.16
2018-03-22T03:59:21.899Z,1010.19
2018-03-22T04:00:21.850Z,1010.24
2018-03-22T04:01:21.805Z,1010.15
2018-03-22T04:02:22.060Z,1010.13
2018-03-22T04:03:21.712Z,1010.20
2018-03-22T04:04:21.666Z,1010.02
2018-03-22T04:05:21.621Z,1010.03
2018-03-22T04:06:21.573Z,1010.03
2018-03-22T04:07:21.532Z,1010.02
2018-03-22T04:08:21.780Z,1009.99
2018-03-22T04:09:21.450Z,1010.04
2018-03-22T04:10:21.388Z,1009.90
2018-03-22T04:11:21.341Z,1009.90
2018-03-22T04:12:21.298Z,1009.86
2018-03-22T04:13:21.247Z,1009.86
2018-03-22T04:14:21.502Z,1009.85
2018-03-22T04:15:21.154Z,1009.92
2018-03-22T04:16:21.108Z,1009.77
2018-03-22T04:17:21.061Z,1009.86
2018-03-22T04:18:21.068Z,1009.87
2018-03-22T04:19:20.970Z,1009.77
2018-03-22T04:20:21.222Z,1009.84
2018-03-22T04:21:20.902Z,1009.83
2018-03-22T04:22:20.845Z,1009.68
2018-03-22T04:23:20.787Z,1009.69
2018-03-22T04:24:20.937Z,1009.72
2018-03-22T04:25:20.690Z,1009.59
2018-03-22T04:26:20.944Z,1009.61
2018-03-22T04:27:20.595Z,1009.64
2018-03-22T04:28:20.551Z,1009.64
2018-03-22T04:29:20.504Z,1009.55
2018-03-22T04:30:20.457Z,1009.60
2018-03-22T04:31:20.422Z,1009.53
2018-03-22T04:32:20.363Z,1009.57
2018-03-22T04:33:20.623Z,1009.58
2018-03-22T04:34:20.275Z,1009.61
2018-03-22T04:35:20.278Z,1009.45
2018-03-22T04:36:20.177Z,1009.59
2018-03-22T04:37:20.137Z,1009.51
2018-03-22T04:38:20.085Z,1009.50
2018-03-22T04:39:20.038Z,1009.52
2018-03-22T04:40:20.291Z,1009.42
2018-03-22T04:41:19.944Z,1009.47
2018-03-22T04:42:19.899Z,1009.50
2018-03-22T04:43:19.855Z,1009.57
2018-03-22T04:44:19.811Z,1009.42
2018-03-22T04:45:19.810Z,1009.41
2018-03-22T04:46:19.763Z,1009.38
2018-03-22T04:47:20.065Z,1009.36
2018-03-22T04:48:19.619Z,1009.36
2018-03-22T04:49:19.596Z,1009.34
2018-03-22T04:50:19.527Z,1009.38
2018-03-22T04:51:19.478Z,1009.37
2018-03-22T04:52:19.432Z,1009.34
2018-03-22T04:53:19.393Z,1009.31
2018-03-22T04:54:19.640Z,1009.32
2018-03-22T04:55:19.292Z,1009.31
2018-03-22T04:56:19.249Z,1009.25
2018-03-22T04:57:19.200Z,1009.26
2018-03-22T04:58:19.356Z,1009.18
2018-03-22T04:59:19.159Z,1009.17
2018-03-22T05:00:19.075Z,1009.19
2018-03-22T05:01:19.315Z,1009.10
2018-03-22T05:02:18.976Z,1009.11
2018-03-22T05:03:18.923Z,1009.11
2018-03-22T05:04:18.926Z,1009.04
2018-03-22T05:05:18.831Z,1009.15
2018-03-22T05:06:18.791Z,1009.14
2018-03-22T05:07:19.038Z,1009.16
2018-03-22T05:08:18.694Z,1009.08
2018-03-22T05:09:18.647Z,1009.07
2018-03-22T05:10:18.650Z,1008.98
2018-03-22T05:11:18.551Z,1009.11
2018-03-22T05:12:18.505Z,1009.02
2018-03-22T05:13:18.760Z,1009.08
2018-03-22T05:14:18.413Z,1009.01
2018-03-22T05:15:18.371Z,1009.03
2018-03-22T05:16:18.322Z,1008.96
2018-03-22T05:17:18.281Z,1008.99
2018-03-22T05:18:18.229Z,1008.84
2018-03-22T05:19:18.481Z,1008.82
2018-03-22T05:20:18.134Z,1008.85
2018-03-22T05:21:18.087Z,1008.79
2018-03-22T05:22:18.042Z,1008.76
2018-03-22T05:23:17.997Z,1008.72
2018-03-22T05:24:17.956Z,1008.67
2018-03-22T05:25:18.208Z,1008.72
2018-03-22T05:26:17.857Z,1008.69
2018-03-22T05:27:17.816Z,1008.70
2018-03-22T05:28:17.769Z,1008.73
2018-03-22T05:29:17.720Z,1008.75
2018-03-22T05:30:17.678Z,1008.71
2018-03-22T05:31:17.932Z,1008.67
2018-03-22T05:32:17.579Z,1008.70
2018-03-22T05:33:17.533Z,1008.71
2018-03-22T05:34:17.489Z,1008.65
2018-03-22T05:35:17.441Z,1008.66
2018-03-22T05:36:17.448Z,1008.61
2018-03-22T05:37:17.648Z,1008.56
2018-03-22T05:38:17.352Z,1008.58
2018-03-22T05:39:17.255Z,1008.59
2018-03-22T05:40:17.208Z,1008.49
2018-03-22T05:41:17.161Z,1008.52
2018-03-22T05:42:17.168Z,1008.55
2018-03-22T05:43:17.069Z,1008.53
2018-03-22T05:44:17.373Z,1008.57
2018-03-22T05:45:16.976Z,1008.62
2018-03-22T05:46:16.928Z,1008.58
2018-03-22T05:47:16.883Z,1008.55
2018-03-22T05:48:16.885Z,1008.51
2018-03-22T05:49:16.794Z,1008.54
2018-03-22T05:50:16.745Z,1008.52
2018-03-22T05:51:16.695Z,1008.57
2018-03-22T05:52:16.661Z,1008.48
2018-03-22T05:53:16.608Z,1008.45
2018-03-22T05:54:16.557Z,1008.44
2018-03-22T05:55:16.512Z,1008.48
2018-03-22T05:56:16.466Z,1008.53
2018-03-22T05:57:16.718Z,1008.43
2018-03-22T05:58:16.472Z,1008.47
2018-03-22T05:59:16.325Z,1008.47
2018-03-22T06:00:16.281Z,1008.45
2018-03-22T06:01:16.233Z,1008.46
2018-03-22T06:02:16.188Z,1008.39
2018-03-22T06:03:16.139Z,1008.43
2018-03-22T06:04:16.546Z,1008.43
2018-03-22T06:05:16.050Z,1008.39
2018-03-22T06:06:16.008Z,1008.40
2018-03-22T06:07:15.956Z,1008.31
2018-03-22T06:08:15.913Z,1008.35
2018-03-22T06:09:15.866Z,1008.34
2018-03-22T06:10:16.016Z,1008.36
2018-03-22T06:11:16.069Z,1008.36
2018-03-22T06:12:15.722Z,1008.25
2018-03-22T06:13:15.678Z,1008.34
2018-03-22T06:14:15.634Z,1008.29
2018-03-22T06:15:15.584Z,1008.30
2018-03-22T06:16:15.544Z,1008.29
2018-03-22T06:17:15.791Z,1008.30
2018-03-22T06:18:15.472Z,1008.25
2018-03-22T06:19:15.453Z,1008.33
2018-03-22T06:20:15.355Z,1008.32
2018-03-22T06:21:15.308Z,1008.26
2018-03-22T06:22:15.260Z,1008.25
2018-03-22T06:23:15.514Z,1008.18
2018-03-22T06:24:15.168Z,1008.23
2018-03-22T06:25:15.124Z,1008.23
2018-03-22T06:26:15.076Z,1008.19
2018-03-22T06:27:15.031Z,1008.11
2018-03-22T06:28:14.983Z,1008.09
2018-03-22T06:29:15.238Z,1008.10
2018-03-22T06:30:14.895Z,1008.09
2018-03-22T06:31:14.844Z,1008.00
2018-03-22T06:32:14.799Z,1007.94
2018-03-22T06:33:14.754Z,1008.06
2018-03-22T06:34:14.704Z,1008.05
2018-03-22T06:35:14.959Z,1008.07
2018-03-22T06:36:14.614Z,1008.09
2018-03-22T06:37:14.568Z,1007.95
2018-03-22T06:38:14.529Z,1008.02
2018-03-22T06:39:14.474Z,1008.04
2018-03-22T06:40:14.432Z,1008.10
2018-03-22T06:41:14.837Z,1008.03
2018-03-22T06:42:14.337Z,1008.00
2018-03-22T06:43:14.289Z,1007.97
2018-03-22T06:44:14.245Z,1008.03
2018-03-22T06:45:14.199Z,1007.97
2018-03-22T06:46:14.152Z,1007.94
2018-03-22T06:47:14.507Z,1007.78
2018-03-22T06:48:14.059Z,1007.91
2018-03-22T06:49:14.015Z,1007.83
2018-03-22T06:50:13.969Z,1007.91
2018-03-22T06:51:13.920Z,1007.83
2018-03-22T06:52:13.888Z,1007.81
2018-03-22T06:53:13.836Z,1007.77
2018-03-22T06:54:14.081Z,1007.80
2018-03-22T06:55:13.737Z,1007.81
2018-03-22T06:56:13.703Z,1007.73
2018-03-22T06:57:13.643Z,1007.75
2018-03-22T06:58:13.649Z,1007.77
2018-03-22T06:59:13.551Z,1007.76
2018-03-22T07:00:13.806Z,1007.86
2018-03-22T07:01:13.465Z,1007.80
2018-03-22T07:02:13.413Z,1007.72
2018-03-22T07:03:13.367Z,1007.70
2018-03-22T07:04:13.426Z,1007.69
2018-03-22T07:05:13.282Z,1007.72
2018-03-22T07:06:13.231Z,1007.71
2018-03-22T07:07:13.484Z,1007.72
2018-03-22T07:08:13.137Z,1007.71
2018-03-22T07:09:13.350Z,1007.70
2018-03-22T07:10:13.045Z,1007.69
2018-03-22T07:11:13.000Z,1007.70
2018-03-22T07:12:12.954Z,1007.69
2018-03-22T07:13:12.908Z,1007.74
2018-03-22T07:14:13.215Z,1007.72
2018-03-22T07:15:12.816Z,1007.72
2018-03-22T07:16:12.778Z,1007.63
2018-03-22T07:17:12.777Z,1007.65
2018-03-22T07:18:12.679Z,1007.61
2018-03-22T07:19:12.836Z,1007.59
2018-03-22T07:20:12.886Z,1007.64
2018-03-22T07:21:12.943Z,1007.52
2018-03-22T07:22:12.496Z,1007.53
2018-03-22T07:23:12.497Z,1007.56
2018-03-22T07:24:12.451Z,1007.61
2018-03-22T07:25:12.433Z,1007.62
2018-03-22T07:26:12.313Z,1007.54
2018-03-22T07:27:12.316Z,1007.60
2018-03-22T07:28:12.228Z,1007.58
2018-03-22T07:29:12.179Z,1007.58
2018-03-22T07:30:12.175Z,1007.62
2018-03-22T07:31:12.128Z,1007.56
2018-03-22T07:32:12.034Z,1007.55
2018-03-22T07:33:12.290Z,1007.62
2018-03-22T07:34:11.942Z,1007.65
2018-03-22T07:35:11.994Z,1007.59
2018-03-22T07:36:11.852Z,1007.62
2018-03-22T07:37:11.854Z,1007.61
2018-03-22T07:38:11.910Z,1007.56
2018-03-22T07:39:12.012Z,1007.60
2018-03-22T07:40:11.675Z,1007.54
2018-03-22T07:41:11.628Z,1007.56
2018-03-22T07:42:11.628Z,1007.47
2018-03-22T07:43:11.628Z,1007.48
2018-03-22T07:44:11.538Z,1007.52
2018-03-22T07:45:11.737Z,1007.47
2018-03-22T07:46:11.392Z,1007.45
2018-03-22T07:47:11.404Z,1007.40
2018-03-22T07:48:11.602Z,1007.45
2018-03-22T07:49:11.302Z,1007.45
2018-03-22T07:50:11.264Z,1007.53
2018-03-22T07:51:11.463Z,1007.50
2018-03-22T07:52:11.218Z,1007.56
2018-03-22T07:53:11.119Z,1007.55
2018-03-22T07:54:11.028Z,1007.55
2018-03-22T07:55:11.179Z,1007.48
2018-03-22T07:56:10.935Z,1007.44
2018-03-22T07:57:11.290Z,1007.39
2018-03-22T07:58:10.892Z,1007.30
2018-03-22T07:59:10.798Z,1007.27
2018-03-22T08:00:10.855Z,1007.25
2018-03-22T08:01:10.706Z,1007.29
2018-03-22T08:02:10.861Z,1007.21
2018-03-22T08:03:10.765Z,1007.25
2018-03-22T08:04:10.895Z,1007.30
2018-03-22T08:05:10.574Z,1007.37
2018-03-22T08:06:10.476Z,1007.32
2018-03-22T08:07:10.484Z,1007.31
2018-03-22T08:08:10.436Z,1007.33
2018-03-22T08:09:10.497Z,1007.30
2018-03-22T08:10:10.345Z,1007.30
2018-03-22T08:11:10.548Z,1007.26
2018-03-22T08:12:10.258Z,1007.24
2018-03-22T08:13:10.209Z,1007.30
2018-03-22T08:14:10.112Z,1007.34
2018-03-22T08:15:10.117Z,1007.35
2018-03-22T08:16:10.021Z,1007.35
2018-03-22T08:17:10.127Z,1007.36
2018-03-22T08:18:10.231Z,1007.38
2018-03-22T08:19:09.887Z,1007.36
2018-03-22T08:20:10.092Z,1007.36
2018-03-22T08:21:09.794Z,1007.39
2018-03-22T08:22:09.950Z,1007.35
2018-03-22T08:23:09.807Z,1007.34
2018-03-22T08:24:09.662Z,1007.30
2018-03-22T08:25:09.912Z,1007.36
2018-03-22T08:26:09.567Z,1007.29
2018-03-22T08:27:09.572Z,1007.24
2018-03-22T08:28:09.526Z,1007.33
2018-03-22T08:29:09.481Z,1007.30
2018-03-22T08:30:09.438Z,1007.31
2018-03-22T08:31:09.343Z,1007.30
2018-03-22T08:32:09.643Z,1007.31
2018-03-22T08:33:09.348Z,1007.36
2018-03-22T08:34:09.352Z,1007.27
2018-03-22T08:35:09.357Z,1007.26
2018-03-22T08:36:09.113Z,1007.25
2018-03-22T08:37:09.278Z,1007.19
2018-03-22T08:38:09.071Z,1007.23
2018-03-22T08:39:09.025Z,1007.20
2018-03-22T08:40:09.131Z,1007.18
2018-03-22T08:41:08.890Z,1007.19
2018-03-22T08:42:08.941Z,1007.15
2018-03-22T08:43:08.998Z,1007.12
2018-03-22T08:44:09.057Z,1007.19
2018-03-22T08:45:08.758Z,1007.18
2018-03-22T08:46:08.668Z,1007.19
2018-03-22T08:47:08.670Z,1007.17
2018-03-22T08:48:08.621Z,1007.17
2018-03-22T08:49:08.572Z,1007.20
2018-03-22T08:50:08.929Z,1007.17
2018-03-22T08:51:08.434Z,1007.07
2018-03-22T08:52:08.592Z,1007.13
2018-03-22T08:53:08.400Z,1007.12
2018-03-22T08:54:08.297Z,1007.18
2018-03-22T08:55:08.302Z,1007.14
2018-03-22T08:56:08.205Z,1007.14
2018-03-22T08:57:08.261Z,1007.17
2018-03-22T08:58:08.219Z,1007.18
2018-03-22T08:59:08.269Z,1006.98
2018-03-22T09:00:08.077Z,1007.03
2018-03-22T09:01:07.982Z,1007.00
2018-03-22T09:02:07.984Z,1006.98
2018-03-22T09:03:07.988Z,1007.03
2018-03-22T09:04:07.899Z,1006.99
2018-03-22T09:05:07.853Z,1007.02
2018-03-22T09:06:07.753Z,1007.02
2018-03-22T09:07:07.767Z,1007.02
2018-03-22T09:08:07.998Z,1007.09
2018-03-22T09:09:07.621Z,1007.07
2018-03-22T09:10:07.880Z,1007.05
2018-03-22T09:11:07.532Z,1007.08
2018-03-22T09:12:07.535Z,1007.03
2018-03-22T09:13:07.496Z,1007.04
2018-03-22T09:14:07.453Z,1007.02
2018-03-22T09:15:07.753Z,1006.98
2018-03-22T09:16:07.304Z,1006.98
2018-03-22T09:17:07.320Z,1006.97
2018-03-22T09:18:07.417Z,1006.90
2018-03-22T09:19:07.176Z,1006.98
2018-03-22T09:20:07.175Z,1006.98
2018-03-22T09:21:07.085Z,1007.00
2018-03-22T09:22:07.648Z,1006.95
2018-03-22T09:23:07.142Z,1007.00
2018-03-22T09:24:06.949Z,1006.99
2018-03-22T09:25:06.961Z,1007.01
2018-03-22T09:26:06.859Z,1007.03
2018-03-22T09:27:06.862Z,1006.99
2018-03-22T09:28:06.967Z,1007.01
2018-03-22T09:29:07.029Z,1007.00
2018-03-22T09:30:06.778Z,1007.02
2018-03-22T09:31:06.634Z,1007.02
2018-03-22T09:32:06.639Z,1007.01
2018-03-22T09:33:06.595Z,1007.01
2018-03-22T09:34:06.502Z,1007.01
2018-03-22T09:35:06.502Z,1006.99
2018-03-22T09:36:06.712Z,1006.94
2018-03-22T09:37:06.414Z,1006.97
2018-03-22T09:38:06.523Z,1006.89
2018-03-22T09:39:06.276Z,1006.82
2018-03-22T09:40:06.282Z,1006.95
2018-03-22T09:41:06.192Z,1006.89
2018-03-22T09:42:06.197Z,1006.87
2018-03-22T09:43:06.398Z,1006.88
2018-03-22T09:44:06.055Z,1006.85
2018-03-22T09:45:06.074Z,1006.81
2018-03-22T09:46:05.963Z,1006.83
2018-03-22T09:47:05.967Z,1006.86
2018-03-22T09:48:05.945Z,1006.81
2018-03-22T09:49:06.232Z,1006.78
2018-03-22T09:50:05.935Z,1006.75
2018-03-22T09:51:05.745Z,1006.71
2018-03-22T09:52:05.747Z,1006.73
2018-03-22T09:53:05.701Z,1006.70
2018-03-22T09:54:05.624Z,1006.71
2018-03-22T09:55:05.861Z,1006.71
2018-03-22T09:56:05.567Z,1006.75
2018-03-22T09:57:05.521Z,1006.80
2018-03-22T09:58:05.479Z,1006.73
2018-03-22T09:59:05.383Z,1006.73
2018-03-22T10:00:05.540Z,1006.75
2018-03-22T10:01:05.648Z,1006.75
2018-03-22T10:02:05.302Z,1006.79
2018-03-22T10:03:05.306Z,1006.80
2018-03-22T10:04:05.174Z,1006.78
2018-03-22T10:05:05.270Z,1006.78
2018-03-22T10:06:05.135Z,1006.81
2018-03-22T10:07:05.330Z,1006.84
2018-03-22T10:08:05.236Z,1006.78
2018-03-22T10:09:04.941Z,1006.74
2018-03-22T10:10:04.947Z,1006.77
2018-03-22T10:11:04.905Z,1006.78
2018-03-22T10:12:04.861Z,1006.78
2018-03-22T10:13:05.223Z,1006.81
2018-03-22T10:14:04.724Z,1006.78
2018-03-22T10:15:04.877Z,1006.74
2018-03-22T10:16:04.788Z,1006.75
2018-03-22T10:17:04.791Z,1006.74
2018-03-22T10:18:04.598Z,1006.68
2018-03-22T10:19:04.514Z,1006.65
2018-03-22T10:20:04.508Z,1006.74
2018-03-22T10:21:04.614Z,1006.72
2018-03-22T10:22:04.430Z,1006.68
2018-03-22T10:23:04.428Z,1006.67
2018-03-22T10:24:04.287Z,1006.64
2018-03-22T10:25:04.596Z,1006.65
2018-03-22T10:26:04.252Z,1006.69
2018-03-22T10:27:04.203Z,1006.63
2018-03-22T10:28:04.161Z,1006.74
2018-03-22T10:29:04.119Z,1006.74
2018-03-22T10:30:04.126Z,1006.63
2018-03-22T10:31:04.184Z,1006.67
2018-03-22T10:32:04.389Z,1006.64
2018-03-22T10:33:03.908Z,1006.67
2018-03-22T10:34:03.902Z,1006.64
2018-03-22T10:35:03.908Z,1006.67
2018-03-22T10:36:03.816Z,1006.58
2018-03-22T10:37:03.771Z,1006.59
2018-03-22T10:38:03.681Z,1006.66
2018-03-22T10:39:03.938Z,1006.62
2018-03-22T10:40:03.893Z,1006.59
2018-03-22T10:41:03.600Z,1006.60
2018-03-22T10:42:03.606Z,1006.59
2018-03-22T10:43:03.467Z,1006.54
2018-03-22T10:44:03.469Z,1006.50
2018-03-22T10:45:03.426Z,1006.51
2018-03-22T10:46:03.386Z,1006.48
2018-03-22T10:47:03.344Z,1006.45
2018-03-22T10:48:03.251Z,1006.44
2018-03-22T10:49:03.255Z,1006.43
2018-03-22T10:50:03.222Z,1006.41
2018-03-22T10:51:03.176Z,1006.47
2018-03-22T10:52:03.381Z,1006.45
2018-03-22T10:53:03.035Z,1006.45
2018-03-22T10:54:03.047Z,1006.41
2018-03-22T10:55:02.999Z,1006.41
2018-03-22T10:56:02.957Z,1006.39
2018-03-22T10:57:02.920Z,1006.41
2018-03-22T10:58:02.827Z,1006.43
2018-03-22T10:59:02.978Z,1006.42
2018-03-22T11:00:02.840Z,1006.38
2018-03-22T11:01:02.748Z,1006.38
2018-03-22T11:02:02.803Z,1006.33
2018-03-22T11:03:02.610Z,1006.36
2018-03-22T11:04:02.617Z,1006.31
2018-03-22T11:05:02.827Z,1006.30
2018-03-22T11:06:02.607Z,1006.32
2018-03-22T11:07:02.538Z,1006.30
2018-03-22T11:08:02.445Z,1006.30
2018-03-22T11:09:02.452Z,1006.35
2018-03-22T11:10:02.516Z,1006.28
2018-03-22T11:11:02.270Z,1006.32
2018-03-22T11:12:02.276Z,1006.32
2018-03-22T11:13:02.184Z,1006.30
2018-03-22T11:14:02.342Z,1006.30
2018-03-22T11:15:02.146Z,1006.26
2018-03-22T11:16:02.056Z,1006.27
2018-03-22T11:17:02.416Z,1006.30
2018-03-22T11:18:01.971Z,1006.26
2018-03-22T11:19:01.983Z,1006.26
2018-03-22T11:20:02.037Z,1006.26
2018-03-22T11:21:01.844Z,1006.26
2018-03-22T11:22:01.851Z,1006.26
2018-03-22T11:23:02.436Z,1006.23
2018-03-22T11:24:01.817Z,1006.22
2018-03-22T11:25:01.877Z,1006.20
2018-03-22T11:26:01.683Z,1006.21
2018-03-22T11:27:01.588Z,1006.18
2018-03-22T11:28:01.744Z,1006.23
2018-03-22T11:29:01.803Z,1006.26
2018-03-22T11:30:01.616Z,1006.25
2018-03-22T11:31:01.481Z,1006.23
2018-03-22T11:32:01.396Z,1006.28
2018-03-22T11:33:01.436Z,1006.28
2018-03-22T11:34:01.352Z,1006.20
2018-03-22T11:35:01.403Z,1006.19
2018-03-22T11:36:01.562Z,1006.20
2018-03-22T11:37:01.169Z,1006.18
2018-03-22T11:38:01.330Z,1006.14
2018-03-22T11:39:01.138Z,1006.17
2018-03-22T11:40:01.100Z,1006.23
2018-03-22T11:41:01.064Z,1006.14
2018-03-22T11:42:00.966Z,1006.15
2018-03-22T11:43:00.978Z,1006.10
2018-03-22T11:44:00.936Z,1006.07
2018-03-22T11:45:00.898Z,1006.08
2018-03-22T11:46:00.868Z,1006.09
2018-03-22T11:47:00.764Z,1006.16
2018-03-22T11:48:00.779Z,1006.05
2018-03-22T11:49:01.037Z,1006.00
2018-03-22T11:50:00.701Z,1006.02
2018-03-22T11:51:00.655Z,1006.02
2018-03-22T11:52:00.567Z,1006.03
2018-03-22T11:53:00.739Z,1005.98
2018-03-22T11:54:00.539Z,1005.97
2018-03-22T11:55:00.650Z,1005.96
2018-03-22T11:56:00.960Z,1005.93
2018-03-22T11:57:00.373Z,1005.94
2018-03-22T11:58:00.378Z,1005.97
2018-03-22T11:59:00.338Z,1005.89
2018-03-22T12:00:00.294Z,1005.94
2018-03-22T12:01:00.255Z,1005.92
2018-03-22T12:02:00.167Z,1005.94
2018-03-22T12:03:00.433Z,1005.94
2018-03-22T12:04:00.291Z,1005.97
2018-03-22T12:05:00.102Z,1005.93
2018-03-22T12:06:00.152Z,1005.92
2018-03-22T12:06:59.966Z,1005.89